Time;durP1;ratioP1;P1;durP2;ratioP2;P2;SDS_P1;SDS_P2;PMS_P1;PMS_P2;Temp;Humidity;BMP_temperature;BMP_pressure;BME280_temperature;BME280_humidity;BME280_pressure;Samples;Min_cycle;Max_cycle;Signal;HPM_P1;HPM_P2
2022/01/17 00:01:52;;;;;;;13.30;8.47;;;;;;;-143.84;58.75;45212.84;5114605;28;21076;-70
2022/01/17 00:04:19;;;;;;;13.97;7.67;;;;;;;-143.84;59.19;45195.69;5114618;28;20454;-70
2022/01/17 00:06:46;;;;;;;18.60;8.90;;;;;;;-143.84;59.24;45209.03;5114212;28;20829;-70
2022/01/17 00:09:14;;;;;;;12.53;8.17;;;;;;;-143.84;58.99;45216.63;5114076;28;20518;-71
2022/01/17 00:11:44;;;;;;;14.77;8.63;;;;;;;-143.84;59.01;45229.97;5113245;28;20442;-71
2022/01/17 00:14:16;;;;;;;13.97;7.53;;;;;;;-143.84;58.46;45199.50;5113737;28;20543;-71
2022/01/17 00:16:48;;;;;;;14.10;8.77;;;;;;;-143.84;58.44;45210.94;5113712;28;20503;-70
2022/01/17 00:19:36;;;;;;;11.63;7.80;;;;;;;-143.84;58.34;45210.94;5114140;28;20435;-71
2022/01/17 00:22:04;;;;;;;15.57;8.47;;;;;;;-143.84;58.22;45237.59;5113144;28;20480;-71
2022/01/17 00:24:31;;;;;;;13.97;9.13;;;;;;;-143.84;58.47;45191.88;5113646;28;20470;-71
2022/01/17 00:26:59;;;;;;;18.93;9.20;;;;;;;-143.84;58.48;45184.25;5113337;28;20443;-70
2022/01/17 00:29:26;;;;;;;15.07;9.30;;;;;;;-143.84;58.56;45216.63;5112547;28;20496;-71
2022/01/17 00:31:53;;;;;;;15.07;8.37;;;;;;;-143.84;58.37;45222.34;5113719;28;20444;-70
2022/01/17 00:34:22;;;;;;;13.73;8.60;;;;;;;-143.84;58.38;45218.53;5113761;28;20461;-70
2022/01/17 00:36:49;;;;;;;16.97;8.77;;;;;;;-143.84;58.42;45207.13;5113465;28;20440;-70
2022/01/17 00:39:17;;;;;;;17.83;9.30;;;;;;;-143.84;57.80;45195.69;5113600;28;20432;-71
2022/01/17 00:41:44;;;;;;;13.17;8.50;;;;;;;-143.84;58.27;45195.69;5113099;28;20442;-71
2022/01/17 00:44:11;;;;;;;15.37;8.73;;;;;;;-143.84;57.84;45197.59;5112473;28;20478;-71
2022/01/17 00:46:39;;;;;;;17.00;9.10;;;;;;;-143.84;57.50;45214.72;5112948;28;20440;-70
2022/01/17 00:49:06;;;;;;;17.83;8.53;;;;;;;-143.84;57.71;45201.41;5111761;28;20485;-70
2022/01/17 00:51:34;;;;;;;11.43;8.37;;;;;;;-143.84;57.65;45195.69;5112954;28;20440;-70
2022/01/17 00:54:02;;;;;;;12.70;8.00;;;;;;;-143.84;57.36;45210.94;5112748;28;20450;-70
2022/01/17 00:56:29;;;;;;;11.47;8.20;;;;;;;-143.84;57.22;45195.69;5113604;28;20814;-70
2022/01/17 00:58:56;;;;;;;15.47;8.97;;;;;;;-143.84;57.63;45205.22;5113137;28;20432;-70
2022/01/17 01:01:23;;;;;;;16.57;8.30;;;;;;;-143.84;57.48;45228.06;5113209;28;20447;-70
2022/01/17 01:03:50;;;;;;;17.00;9.30;;;;;;;-143.84;57.37;45229.97;5113297;28;20528;-70
2022/01/17 01:06:17;;;;;;;12.57;8.27;;;;;;;-143.84;57.38;45201.41;5113195;28;21262;-70
2022/01/17 01:08:46;;;;;;;10.20;7.77;;;;;;;-143.84;57.38;45224.25;5113143;28;20451;-70
2022/01/17 01:11:13;;;;;;;13.13;8.60;;;;;;;-143.84;57.73;45199.50;5112792;28;20445;-70
2022/01/17 01:13:41;;;;;;;12.03;7.83;;;;;;;-143.84;56.89;45224.25;5113091;28;20949;-70
2022/01/17 01:19:20;;;;;;;15.47;8.07;;;;;;;-143.84;56.88;45226.16;5111829;28;20906;-70
2022/01/17 01:27:37;;;;;;;14.40;8.60;;;;;;;-143.84;56.93;45188.06;5112776;28;20792;-70
2022/01/17 01:27:48;;;;;;;10.63;7.60;;;;;;;-143.84;57.03;45176.66;5112909;28;20434;-70
2022/01/17 01:30:17;;;;;;;17.67;9.63;;;;;;;-143.84;57.37;45228.06;5113025;28;20544;-70
2022/01/17 01:32:49;;;;;;;10.13;7.23;;;;;;;-143.84;57.25;45199.50;5112164;28;20431;-71
2022/01/17 01:35:19;;;;;;;17.23;8.47;;;;;;;-143.84;57.25;45186.16;5112796;28;20842;-70
2022/01/17 01:37:47;;;;;;;11.13;8.50;;;;;;;-143.84;57.05;45207.13;5112341;28;20469;-71
2022/01/17 01:40:18;;;;;;;15.80;8.33;;;;;;;-143.84;57.09;45201.41;5112438;28;20458;-71
2022/01/17 01:42:46;;;;;;;11.63;7.50;;;;;;;-143.84;57.01;45197.59;5128208;27;20560;-71
2022/01/17 01:45:14;;;;;;;14.17;7.40;;;;;;;-143.84;56.85;45209.03;5131541;27;20451;-71
2022/01/17 01:47:42;;;;;;;13.47;8.50;;;;;;;-143.84;57.25;45199.50;5132804;27;20461;-71
2022/01/17 01:50:12;;;;;;;15.93;9.13;;;;;;;-143.84;57.21;45186.16;5132838;27;20462;-71
2022/01/17 01:52:42;;;;;;;13.10;8.80;;;;;;;-143.84;57.12;45172.84;5132475;27;20446;-71
2022/01/17 01:55:11;;;;;;;10.20;6.90;;;;;;;-143.84;56.78;45199.50;5133035;27;20957;-70
2022/01/17 01:57:42;;;;;;;12.50;7.63;;;;;;;-143.84;57.33;45189.97;5118684;27;20444;-71
2022/01/17 02:00:11;;;;;;;10.87;7.47;;;;;;;-143.84;56.88;45180.47;5106298;28;20921;-71
2022/01/17 02:02:38;;;;;;;10.43;7.43;;;;;;;-143.84;56.98;45176.66;5112593;28;20989;-71
2022/01/17 02:05:06;;;;;;;11.20;7.27;;;;;;;-143.84;56.23;45197.59;5111761;28;20429;-71
2022/01/17 02:07:33;;;;;;;16.20;7.87;;;;;;;-143.84;56.96;45228.06;5111234;28;20882;-71
2022/01/17 02:10:00;;;;;;;11.03;6.77;;;;;;;-143.84;56.44;45191.88;5111775;28;20940;-70
2022/01/17 02:12:29;;;;;;;13.10;7.87;;;;;;;-143.84;56.71;45231.88;5111725;28;20934;-70
2022/01/17 02:14:58;;;;;;;11.77;8.13;;;;;;;-143.84;56.25;45150.00;5112367;28;20431;-70
2022/01/17 02:17:26;;;;;;;12.43;7.73;;;;;;;-143.84;56.34;45212.84;5111818;28;21026;-70
2022/01/17 02:20:03;;;;;;;10.40;6.80;;;;;;;-143.84;56.42;45212.84;5112064;28;20464;-70
2022/01/17 02:22:31;;;;;;;15.73;7.43;;;;;;;-143.84;56.31;45199.50;5111670;28;20439;-70
2022/01/17 02:24:58;;;;;;;11.20;7.63;;;;;;;-143.84;56.51;45189.97;5111758;28;20496;-70
2022/01/17 02:27:25;;;;;;;10.87;6.90;;;;;;;-143.84;56.13;45209.03;5093716;28;20448;-70
2022/01/17 02:29:52;;;;;;;11.00;7.73;;;;;;;-143.84;56.14;45178.56;5091294;28;20432;-70
2022/01/17 02:32:20;;;;;;;10.30;6.97;;;;;;;-143.84;56.63;45197.59;5089118;28;20463;-70
2022/01/17 02:34:47;;;;;;;9.37;6.87;;;;;;;-143.84;56.40;45210.94;5088724;28;20440;-70
2022/01/17 02:37:18;;;;;;;12.23;8.07;;;;;;;-143.84;56.20;45207.13;5090487;28;20429;-70
2022/01/17 02:39:46;;;;;;;13.20;7.20;;;;;;;-143.84;56.60;45250.91;5090278;28;20487;-70
2022/01/17 02:42:18;;;;;;;12.90;8.10;;;;;;;-143.84;56.72;45195.69;5090525;28;20791;-70
2022/01/17 02:44:46;;;;;;;7.83;6.23;;;;;;;-143.84;56.62;45220.44;5092499;28;20481;-70
2022/01/17 02:47:17;;;;;;;11.67;5.77;;;;;;;-143.84;57.26;45207.13;5095519;28;20440;-70
2022/01/17 02:49:44;;;;;;;14.53;7.37;;;;;;;-143.84;57.04;45226.16;5095563;28;20452;-70
2022/01/17 02:52:11;;;;;;;15.50;7.30;;;;;;;-143.84;56.55;45228.06;5095542;28;20431;-70
2022/01/17 02:54:40;;;;;;;9.20;7.10;;;;;;;-143.84;56.43;45216.63;5095684;28;20919;-70
2022/01/17 02:57:08;;;;;;;11.57;7.00;;;;;;;-143.84;56.46;45207.13;5095008;28;20902;-71
2022/01/17 02:59:35;;;;;;;10.23;6.00;;;;;;;-143.84;56.15;45209.03;5134506;27;20487;-71
2022/01/17 03:02:04;;;;;;;10.60;6.60;;;;;;;-143.84;56.45;45199.50;5136079;27;20492;-71
2022/01/17 03:04:33;;;;;;;15.13;6.70;;;;;;;-143.84;56.11;45203.31;5118521;27;20466;-71
2022/01/17 03:07:00;;;;;;;10.73;6.53;;;;;;;-143.84;56.42;45216.63;5136095;27;20869;-70
2022/01/17 03:09:32;;;;;;;9.17;6.73;;;;;;;-143.84;56.24;45226.16;5136212;27;20951;-70
2022/01/17 03:12:01;;;;;;;10.77;7.43;;;;;;;-143.84;55.94;45224.25;5136188;27;20424;-70
2022/01/17 03:14:28;;;;;;;20.30;8.50;;;;;;;-143.84;56.40;45216.63;5135944;27;20953;-70
2022/01/17 03:16:56;;;;;;;16.00;8.03;;;;;;;-143.84;55.92;45222.34;5136165;27;20442;-70
2022/01/17 03:19:23;;;;;;;9.67;6.70;;;;;;;-143.84;56.32;45189.97;5135727;27;20427;-70
2022/01/17 03:21:50;;;;;;;12.47;6.90;;;;;;;-143.84;56.01;45199.50;5135833;27;20453;-70
2022/01/17 03:24:17;;;;;;;10.60;6.50;;;;;;;-143.84;56.14;45191.88;5135723;27;20873;-70
2022/01/17 03:26:44;;;;;;;11.07;6.60;;;;;;;-143.84;56.40;45207.13;5136045;27;20426;-70
2022/01/17 03:29:13;;;;;;;11.60;7.67;;;;;;;-143.84;56.71;45193.78;5135576;27;20953;-70
2022/01/17 03:31:40;;;;;;;12.10;8.00;;;;;;;-143.84;56.57;45209.03;5135979;27;20449;-70
2022/01/17 03:34:07;;;;;;;9.67;7.80;;;;;;;-143.84;56.25;45228.06;5136214;27;20440;-70
2022/01/17 03:36:34;;;;;;;9.27;7.70;;;;;;;-143.84;56.04;45207.13;5135621;27;20989;-70
2022/01/17 03:39:01;;;;;;;13.43;7.00;;;;;;;-143.84;56.33;45199.50;5135482;27;20430;-71
2022/01/17 03:41:29;;;;;;;9.90;7.10;;;;;;;-143.84;56.16;45193.78;5135338;27;20828;-70
2022/01/17 03:43:56;;;;;;;9.20;6.33;;;;;;;-143.84;56.05;45193.78;5135584;27;20855;-71
2022/01/17 03:46:26;;;;;;;12.00;7.17;;;;;;;-143.84;55.97;45212.84;5134951;27;20943;-70
2022/01/17 03:48:54;;;;;;;10.90;6.93;;;;;;;-143.84;56.12;45210.94;5135462;27;20775;-71
2022/01/17 03:51:21;;;;;;;10.87;7.10;;;;;;;-143.84;55.63;45222.34;5135695;27;20426;-71
2022/01/17 03:53:49;;;;;;;16.50;7.20;;;;;;;-143.84;55.54;45199.50;5135270;27;20940;-71
2022/01/17 03:56:18;;;;;;;8.40;6.17;;;;;;;-143.84;55.60;45216.63;5135148;27;20449;-70
2022/01/17 03:58:46;;;;;;;10.10;6.73;;;;;;;-143.84;56.02;45199.50;5121255;27;20917;-70
2022/01/17 04:01:13;;;;;;;13.50;7.77;;;;;;;-143.84;55.94;45205.22;5113590;28;20474;-71
2022/01/17 04:03:42;;;;;;;9.30;7.23;;;;;;;-143.84;56.25;45224.25;5113616;28;20527;-70
2022/01/17 04:06:09;;;;;;;11.60;7.57;;;;;;;-143.84;56.14;45201.41;5114300;28;20859;-70
2022/01/17 04:08:36;;;;;;;10.70;7.10;;;;;;;-143.84;56.72;45228.06;5114371;28;20439;-70
2022/01/17 04:11:04;;;;;;;13.60;7.50;;;;;;;-143.84;56.27;45229.97;5114713;28;20435;-70
2022/01/17 04:13:32;;;;;;;13.70;6.27;;;;;;;-143.84;56.08;45207.13;5113290;28;20948;-70
2022/01/17 04:15:59;;;;;;;9.23;5.87;;;;;;;-143.84;56.39;45228.06;5112880;28;20486;-70
2022/01/17 04:18:26;;;;;;;11.87;6.87;;;;;;;-143.84;56.15;45205.22;5114476;28;20846;-70
2022/01/17 04:20:57;;;;;;;9.10;6.47;;;;;;;-143.84;55.83;45201.41;5114268;28;20444;-70
2022/01/17 04:23:24;;;;;;;12.20;7.50;;;;;;;-143.84;56.05;45176.66;5113997;28;20466;-70
2022/01/17 04:25:51;;;;;;;10.87;7.00;;;;;;;-143.84;55.77;45195.69;5114378;28;20444;-70
2022/01/17 04:28:18;;;;;;;13.40;7.23;;;;;;;-143.84;56.23;45214.72;5114244;28;20472;-70
2022/01/17 04:30:46;;;;;;;16.10;6.60;;;;;;;-143.84;56.20;45218.53;5114003;28;20427;-70
2022/01/17 04:33:13;;;;;;;8.90;6.90;;;;;;;-143.84;55.58;45210.94;5114270;28;20432;-70
2022/01/17 04:35:42;;;;;;;13.00;7.40;;;;;;;-143.84;55.69;45184.25;5114414;28;21125;-70
2022/01/17 04:38:13;;;;;;;10.73;6.77;;;;;;;-143.84;56.48;45207.13;5113766;28;20428;-70
2022/01/17 04:40:40;;;;;;;13.73;8.33;;;;;;;-143.84;55.97;45214.72;5113964;28;20443;-71
2022/01/17 04:43:17;;;;;;;12.33;6.53;;;;;;;-143.84;56.42;45195.69;5113544;28;20484;-70
2022/01/17 04:45:44;;;;;;;13.67;8.40;;;;;;;-143.84;56.71;45212.84;5113850;28;20426;-70
2022/01/17 04:48:11;;;;;;;13.33;7.47;;;;;;;-143.84;57.63;45203.31;5114003;28;20909;-70
2022/01/17 04:50:38;;;;;;;10.70;7.80;;;;;;;-143.84;57.45;45193.78;5113810;28;20443;-70
2022/01/17 04:53:07;;;;;;;8.87;7.43;;;;;;;-143.84;58.10;45180.47;5113527;28;20443;-70
2022/01/17 04:55:37;;;;;;;14.30;8.23;;;;;;;-143.84;58.56;45201.41;5113827;28;20909;-71
2022/01/17 04:58:04;;;;;;;14.53;8.70;;;;;;;-143.84;58.56;45201.41;5113124;28;20438;-71
2022/01/17 05:00:32;;;;;;;15.70;8.67;;;;;;;-143.84;58.49;45201.41;5113669;28;20435;-70
2022/01/17 05:02:59;;;;;;;12.93;8.50;;;;;;;-143.84;58.64;45197.59;5112740;28;20455;-70
2022/01/17 05:05:26;;;;;;;13.73;8.10;;;;;;;-143.84;58.96;45186.16;5112748;28;20463;-70
2022/01/17 05:07:53;;;;;;;15.90;8.57;;;;;;;-143.84;59.11;45203.31;5112114;28;20439;-70
2022/01/17 05:10:23;;;;;;;17.70;7.97;;;;;;;-143.84;58.75;45195.69;5112901;28;20435;-70
2022/01/17 05:12:53;;;;;;;11.53;8.20;;;;;;;-143.84;59.51;45178.56;5112974;28;20436;-71
2022/01/17 05:15:28;;;;;;;15.37;7.97;;;;;;;-143.84;59.67;45205.22;5113281;28;20486;-70
2022/01/17 05:18:12;;;;;;;15.10;8.37;;;;;;;-143.84;59.55;45212.84;5112611;28;20853;-70
2022/01/17 05:20:40;;;;;;;12.60;8.17;;;;;;;-143.84;59.66;45222.34;5111569;28;20454;-71
2022/01/17 05:23:08;;;;;;;15.87;8.33;;;;;;;-143.84;60.01;45189.97;5113089;28;20439;-72
2022/01/17 05:25:35;;;;;;;15.27;8.67;;;;;;;-143.84;59.66;45210.94;5112589;28;20601;-72
2022/01/17 05:28:04;;;;;;;12.97;8.10;;;;;;;-143.84;59.77;45241.41;5113225;28;20439;-73
2022/01/17 05:30:31;;;;;;;23.30;9.27;;;;;;;-143.84;59.78;45220.44;5111213;28;20461;-71
2022/01/17 05:32:59;;;;;;;13.83;8.40;;;;;;;-143.84;59.73;45189.97;5112794;28;20437;-72
2022/01/17 05:35:27;;;;;;;18.73;8.37;;;;;;;-143.84;60.11;45209.03;5112638;28;20442;-73
2022/01/17 05:37:54;;;;;;;17.03;8.30;;;;;;;-143.84;60.04;45209.03;5112639;28;20525;-71
2022/01/17 05:40:22;;;;;;;11.90;7.57;;;;;;;-143.84;59.69;45207.13;5113293;28;20788;-71
2022/01/17 05:42:49;;;;;;;14.80;8.50;;;;;;;-143.84;59.54;45214.72;5112137;28;20451;-71
2022/01/17 05:45:18;;;;;;;14.70;7.70;;;;;;;-143.84;59.33;45231.88;5111514;28;20851;-74
2022/01/17 05:47:47;;;;;;;13.27;8.07;;;;;;;-143.84;59.42;45214.72;5107584;28;20443;-74
2022/01/17 05:50:14;;;;;;;21.83;8.30;;;;;;;-143.84;59.86;45205.22;5107987;28;20453;-74
2022/01/17 05:52:42;;;;;;;10.33;7.70;;;;;;;-143.84;59.57;45195.69;5112324;28;20455;-74
2022/01/17 05:55:12;;;;;;;16.67;8.17;;;;;;;-143.84;59.41;45186.16;5111197;28;21002;-72
2022/01/17 05:57:40;;;;;;;12.60;8.20;;;;;;;-143.84;59.76;45262.34;5106896;28;20829;-73
2022/01/17 06:00:10;;;;;;;14.20;8.57;;;;;;;-143.84;59.63;45184.25;5090952;28;20432;-71
2022/01/17 06:02:39;;;;;;;13.93;8.27;;;;;;;-143.84;59.71;45220.44;5091196;28;20810;-73
2022/01/17 06:05:07;;;;;;;22.10;8.47;;;;;;;-143.84;59.57;45209.03;5090447;28;20471;-72
2022/01/17 06:07:34;;;;;;;11.23;8.40;;;;;;;-143.84;59.13;45174.75;5091161;28;20941;-74
2022/01/17 06:10:02;;;;;;;11.60;7.77;;;;;;;-143.84;59.04;45184.25;5091108;28;20437;-70
2022/01/17 06:12:29;;;;;;;12.60;8.17;;;;;;;-143.84;58.89;45193.78;5091270;28;20428;-72
2022/01/17 06:14:57;;;;;;;16.63;8.13;;;;;;;-143.84;58.50;45197.59;5091503;28;20428;-72
2022/01/17 06:17:24;;;;;;;14.17;8.63;;;;;;;-143.84;58.84;45201.41;5094971;28;20435;-72
2022/01/17 06:19:53;;;;;;;10.73;7.47;;;;;;;-143.84;58.13;45193.78;5110637;28;20823;-72
2022/01/17 06:22:20;;;;;;;12.70;8.60;;;;;;;-143.84;58.26;45199.50;5112044;28;20460;-71
2022/01/17 06:24:47;;;;;;;9.80;7.90;;;;;;;-143.84;57.85;45205.22;5111282;28;21049;-72
2022/01/17 06:27:14;;;;;;;15.80;9.07;;;;;;;-143.84;58.02;45212.84;5097384;28;20444;-72
2022/01/17 06:29:41;;;;;;;19.60;8.97;;;;;;;-143.84;58.13;45214.72;5091831;28;20890;-72
2022/01/17 06:32:09;;;;;;;14.93;8.30;;;;;;;-143.84;57.40;45197.59;5092054;28;20437;-72
2022/01/17 06:34:36;;;;;;;13.50;8.10;;;;;;;-143.84;57.69;45199.50;5091812;28;20448;-72
2022/01/17 06:37:05;;;;;;;14.10;8.13;;;;;;;-143.84;57.05;45201.41;5091613;28;20832;-72
2022/01/17 06:39:33;;;;;;;14.07;9.90;;;;;;;-143.84;57.20;45184.25;5090382;28;20448;-72
2022/01/17 06:42:01;;;;;;;12.97;8.30;;;;;;;-143.84;57.10;45191.88;5090859;28;20997;-72
2022/01/17 06:44:28;;;;;;;11.07;7.77;;;;;;;-143.84;56.74;45201.41;5107278;28;20483;-72
2022/01/17 06:46:55;;;;;;;16.13;7.90;;;;;;;-143.84;56.39;45195.69;5111940;28;20500;-72
2022/01/17 06:49:22;;;;;;;14.33;9.10;;;;;;;-143.84;55.77;45184.25;5111611;28;20428;-72
2022/01/17 06:51:49;;;;;;;13.83;8.70;;;;;;;-143.84;55.46;45197.59;5111779;28;20444;-72
2022/01/17 06:54:18;;;;;;;18.90;9.30;;;;;;;-143.84;55.30;45207.13;5112251;28;20847;-72
2022/01/17 06:56:45;;;;;;;16.13;10.07;;;;;;;-143.84;55.31;45195.69;5111654;28;20435;-71
2022/01/17 06:59:13;;;;;;;17.10;9.93;;;;;;;-143.84;54.64;45189.97;5113576;28;20446;-72
2022/01/17 07:01:40;;;;;;;15.23;9.67;;;;;;;-143.84;54.69;45174.75;5109188;28;20480;-72
2022/01/17 07:04:08;;;;;;;15.83;9.00;;;;;;;-143.84;54.55;45193.78;5108349;28;20476;-72
2022/01/17 07:06:37;;;;;;;15.37;8.90;;;;;;;-143.84;54.17;45191.88;5109337;28;20435;-73
2022/01/17 07:09:05;;;;;;;17.73;9.20;;;;;;;-143.84;54.21;45189.97;5109159;28;20439;-72
2022/01/17 07:11:38;;;;;;;19.13;8.73;;;;;;;-143.84;54.07;45189.97;5109287;28;20526;-72
2022/01/17 07:14:06;;;;;;;21.30;10.00;;;;;;;-143.84;53.41;45195.69;5109110;28;20449;-72
2022/01/17 07:16:33;;;;;;;13.60;7.50;;;;;;;-143.84;53.97;45197.59;5108962;28;20444;-72
2022/01/17 07:19:00;;;;;;;17.00;8.83;;;;;;;-143.84;53.67;45195.69;5108295;28;20443;-74
2022/01/17 07:21:28;;;;;;;13.30;8.70;;;;;;;-143.84;53.41;45186.16;5109319;28;20436;-73
2022/01/17 07:23:55;;;;;;;11.13;8.10;;;;;;;-143.84;53.09;45189.97;5108959;28;20435;-73
2022/01/17 07:26:23;;;;;;;12.40;8.93;;;;;;;-143.84;52.57;45199.50;5109230;28;20438;-73
2022/01/17 07:28:52;;;;;;;19.23;10.00;;;;;;;-143.84;53.22;45167.13;5109096;28;20958;-73
2022/01/17 07:31:20;;;;;;;16.80;9.30;;;;;;;-143.84;53.44;45178.56;5110614;28;20492;-73
2022/01/17 07:33:47;;;;;;;16.90;10.17;;;;;;;-143.84;53.59;45195.69;5103681;28;20456;-73
2022/01/17 07:36:18;;;;;;;16.43;11.07;;;;;;;-143.84;53.60;45157.59;5104788;27;20515;-73
2022/01/17 07:38:45;;;;;;;16.87;11.20;;;;;;;-143.84;53.07;45189.97;5111494;28;20452;-72
2022/01/17 07:41:12;;;;;;;16.70;11.50;;;;;;;-143.84;53.55;45189.97;5093146;28;20538;-73
2022/01/17 07:43:41;;;;;;;14.63;10.30;;;;;;;-143.84;53.35;45184.25;5092170;28;20487;-73
2022/01/17 07:46:19;;;;;;;17.93;11.20;;;;;;;-143.84;52.90;45199.50;5092225;28;20489;-72
2022/01/17 07:51:28;;;;;;;22.43;12.70;;;;;;;-143.84;53.52;45193.78;5082709;28;20443;-73
2022/01/17 07:53:56;;;;;;;22.57;11.67;;;;;;;-143.84;53.04;45203.31;5112530;28;20537;-74
2022/01/17 07:56:24;;;;;;;17.77;10.67;;;;;;;-143.84;52.44;45191.88;5112442;28;21264;-73
2022/01/17 07:58:51;;;;;;;16.93;10.23;;;;;;;-143.84;51.57;45163.31;5113023;28;21055;-74
2022/01/17 08:01:20;;;;;;;25.17;11.40;;;;;;;-143.84;51.10;45188.06;5111666;28;20489;-74
2022/01/17 08:03:47;;;;;;;17.03;10.27;;;;;;;-143.84;49.88;45165.22;5111608;28;20452;-73
2022/01/17 08:06:15;;;;;;;15.43;9.30;;;;;;;-143.84;49.59;45170.94;5112673;28;20471;-73
2022/01/17 08:08:42;;;;;;;15.07;10.67;;;;;;;-143.84;48.60;45176.66;5112568;28;20435;-72
2022/01/17 08:11:09;;;;;;;12.53;9.60;;;;;;;-143.84;48.83;45184.25;5112259;28;20509;-73
2022/01/17 08:13:36;;;;;;;15.60;9.57;;;;;;;-143.84;47.92;45176.66;5112542;28;20442;-73
2022/01/17 08:16:04;;;;;;;12.30;8.47;;;;;;;-143.84;47.55;45155.69;5112994;27;20510;-73
2022/01/17 08:18:33;;;;;;;15.60;9.17;;;;;;;-143.84;46.49;45170.94;5103355;27;20440;-73
2022/01/17 08:21:03;;;;;;;23.60;10.13;;;;;;;-143.84;46.99;45170.94;5111909;28;20846;-73
2022/01/17 08:23:31;;;;;;;15.50;8.80;;;;;;;-143.84;46.41;45189.97;5111607;28;20473;-73
2022/01/17 08:25:58;;;;;;;19.17;8.93;;;;;;;-143.84;45.87;45165.22;5111314;28;21058;-73
2022/01/17 08:28:25;;;;;;;16.87;9.00;;;;;;;-143.84;45.88;45197.59;5111214;28;21320;-73
2022/01/17 08:30:53;;;;;;;23.27;10.47;;;;;;;-143.84;44.68;45193.78;5111363;28;20522;-73
2022/01/17 08:33:22;;;;;;;15.20;9.20;;;;;;;-143.84;43.32;45153.81;5128405;27;20462;-73
2022/01/17 08:35:51;;;;;;;16.40;10.60;;;;;;;-143.84;42.39;45151.91;5113262;27;20539;-74
2022/01/17 08:38:18;;;;;;;14.73;9.10;;;;;;;-143.84;41.56;45155.69;5131505;27;20442;-74
2022/01/17 08:40:46;;;;;;;14.63;9.50;;;;;;;-143.84;40.83;45174.75;5132100;27;20439;-74
2022/01/17 08:43:13;;;;;;;15.63;9.10;;;;;;;-143.84;40.49;45132.84;5130811;27;20489;-73
2022/01/17 08:45:41;;;;;;;11.43;8.53;;;;;;;-143.84;39.60;45140.47;5131929;27;20477;-74
2022/01/17 08:48:08;;;;;;;13.27;8.97;;;;;;;-143.84;38.85;45159.50;5131146;27;20545;-74
2022/01/17 08:50:35;;;;;;;11.10;8.03;;;;;;;-143.84;38.69;45157.59;5130560;27;20978;-74
2022/01/17 08:53:05;;;;;;;12.20;7.90;;;;;;;-143.84;38.77;45144.28;5131496;27;20445;-74
2022/01/17 08:55:32;;;;;;;12.50;8.17;;;;;;;-143.84;38.92;45140.47;5131435;27;21003;-74
2022/01/17 08:58:01;;;;;;;18.93;9.10;;;;;;;-143.84;38.87;45130.94;5131109;27;20511;-74
2022/01/17 09:00:28;;;;;;;14.20;9.00;;;;;;;-143.84;38.37;45167.13;5131264;27;20450;-74
2022/01/17 09:02:55;;;;;;;15.43;9.40;;;;;;;-143.84;38.67;45130.94;5130725;27;20446;-74
2022/01/17 09:05:22;;;;;;;16.17;8.33;;;;;;;-143.84;38.76;45123.34;5131087;27;20491;-74
2022/01/17 09:07:50;;;;;;;20.80;9.73;;;;;;;-143.84;38.63;45151.91;5131398;27;20450;-74
2022/01/17 09:10:19;;;;;;;18.80;9.97;;;;;;;-143.84;38.63;45127.13;5131061;27;20507;-74
2022/01/17 09:12:46;;;;;;;22.83;11.17;;;;;;;-143.84;39.21;45150.00;5130950;27;21388;-74
2022/01/17 09:15:14;;;;;;;15.00;10.30;;;;;;;-143.84;38.92;45144.28;5131386;27;20477;-74
2022/01/17 09:17:41;;;;;;;29.87;12.93;;;;;;;-143.84;38.80;45161.41;5130494;27;20814;-74
2022/01/17 09:20:09;;;;;;;22.37;12.50;;;;;;;-143.84;39.12;45150.00;5129536;27;20963;-74
2022/01/17 09:22:36;;;;;;;20.57;12.23;;;;;;;-143.84;38.93;45151.91;5131261;27;20443;-75
2022/01/17 09:25:06;;;;;;;19.10;12.40;;;;;;;-143.84;38.81;45123.34;5130736;27;20534;-74
2022/01/17 09:27:35;;;;;;;22.07;10.63;;;;;;;-143.84;38.23;45151.91;5130564;27;20505;-74
2022/01/17 09:30:04;;;;;;;24.27;11.23;;;;;;;-143.84;37.72;45127.13;5130733;27;20449;-74
2022/01/17 09:32:31;;;;;;;14.13;9.73;;;;;;;-143.84;37.21;45140.47;5129786;27;20504;-74
2022/01/17 09:34:59;;;;;;;13.57;8.70;;;;;;;-143.84;36.84;45150.00;5130509;27;20439;-74
2022/01/17 09:37:26;;;;;;;12.37;8.87;;;;;;;-143.84;36.67;45146.19;5130546;27;20994;-74
2022/01/17 09:39:54;;;;;;;14.70;9.23;;;;;;;-143.84;36.30;45125.22;5130376;27;20464;-74
2022/01/17 09:42:22;;;;;;;18.43;8.40;;;;;;;-143.84;36.27;45117.63;5130942;27;20520;-74
2022/01/17 09:44:50;;;;;;;14.10;9.37;;;;;;;-143.84;36.35;45148.09;5130135;27;20479;-74
2022/01/17 09:47:18;;;;;;;14.13;8.80;;;;;;;-143.84;35.50;45136.66;5130044;27;20478;-74
2022/01/17 09:49:52;;;;;;;12.00;8.53;;;;;;;-143.84;35.82;45153.81;5129595;27;20496;-74
2022/01/17 09:52:35;;;;;;;21.90;9.80;;;;;;;-143.84;35.85;45144.28;5127932;27;20524;-74
2022/01/17 09:55:07;;;;;;;21.87;10.30;;;;;;;-143.84;35.79;45127.13;5110425;28;20437;-74
2022/01/17 09:57:42;;;;;;;19.60;9.30;;;;;;;-143.84;36.22;45144.28;5121042;27;20452;-74
2022/01/17 10:00:14;;;;;;;22.83;10.07;;;;;;;-143.84;36.30;45096.66;5129835;27;20460;-74
2022/01/17 10:02:41;;;;;;;13.60;10.43;;;;;;;-143.84;36.07;45117.63;5110489;27;20464;-74
2022/01/17 10:05:09;;;;;;;17.43;10.70;;;;;;;-143.84;36.22;45104.28;5131551;27;20513;-74
2022/01/17 10:07:54;;;;;;;20.70;9.53;;;;;;;-143.84;36.35;45121.44;5131417;27;20433;-74
2022/01/17 10:10:54;;;;;;;17.57;9.17;;;;;;;-143.84;36.35;45134.75;5131069;27;20445;-74
2022/01/17 10:13:24;;;;;;;10.27;7.67;;;;;;;-143.84;36.13;45110.00;5096435;27;20502;-74
2022/01/17 10:16:03;;;;;;;14.00;6.90;;;;;;;-143.84;36.58;45087.16;5130903;27;20441;-74
2022/01/17 10:18:34;;;;;;;9.77;6.80;;;;;;;-143.84;36.27;45115.72;5130422;27;20440;-74
2022/01/17 10:21:06;;;;;;;10.13;6.50;;;;;;;-143.84;36.54;45136.66;5130757;27;20479;-74
2022/01/17 10:26:54;;;;;;;10.67;6.23;;;;;;;-143.84;36.53;45113.81;5110015;28;21121;-74
2022/01/17 10:35:08;;;;;;;16.33;6.73;;;;;;;-143.84;37.57;45117.63;5109623;28;20441;-74
2022/01/17 10:37:35;;;;;;;10.73;6.90;;;;;;;-143.84;37.71;45121.44;5109865;28;20446;-71
2022/01/17 10:40:06;;;;;;;12.60;7.00;;;;;;;-143.84;38.35;45119.53;5108925;28;20438;-71
2022/01/17 10:42:37;;;;;;;10.00;6.40;;;;;;;-143.84;38.18;45129.03;5120686;28;20438;-72
2022/01/17 10:45:08;;;;;;;9.80;7.03;;;;;;;-143.84;38.47;45127.13;5130720;28;20481;-71
2022/01/17 10:47:40;;;;;;;10.07;6.90;;;;;;;-143.84;38.84;45121.44;5130322;28;20444;-71
2022/01/17 10:50:12;;;;;;;9.53;7.37;;;;;;;-143.84;39.23;45102.38;5128689;28;20454;-71
2022/01/17 10:52:43;;;;;;;8.97;7.30;;;;;;;-143.84;39.35;45123.34;5129270;28;20434;-71
2022/01/17 10:55:15;;;;;;;16.90;7.73;;;;;;;-143.84;38.78;45117.63;5129972;28;20471;-71
2022/01/17 10:57:45;;;;;;;12.93;7.90;;;;;;;-143.84;38.86;45092.88;5129542;28;20445;-71
2022/01/17 11:00:15;;;;;;;12.97;7.17;;;;;;;-143.84;39.27;45090.97;5129892;28;20844;-71
2022/01/17 11:02:45;;;;;;;12.17;7.23;;;;;;;-143.84;39.62;45119.53;5130341;28;20442;-71
2022/01/17 11:05:14;;;;;;;14.77;7.60;;;;;;;-143.84;40.03;45180.47;5130439;27;20501;-71
2022/01/17 11:07:43;;;;;;;15.20;8.47;;;;;;;-143.84;40.41;45117.63;5134502;27;20517;-71
2022/01/17 11:10:23;;;;;;;9.07;7.57;;;;;;;-143.84;40.32;45121.44;5134361;27;20450;-71
2022/01/17 11:12:51;;;;;;;14.50;9.10;;;;;;;-143.84;40.54;45134.75;5134296;27;20441;-71
2022/01/17 11:15:20;;;;;;;13.13;7.70;;;;;;;-143.84;41.25;45129.03;5134043;27;20442;-71
2022/01/17 11:17:53;;;;;;;12.27;8.97;;;;;;;-143.84;41.49;45130.94;5134202;27;20445;-71
2022/01/17 11:20:22;;;;;;;16.37;9.07;;;;;;;-143.84;41.40;45119.53;5134100;27;20457;-71
2022/01/17 11:22:51;;;;;;;17.53;8.83;;;;;;;-143.84;41.53;45123.34;5133948;27;20521;-72
2022/01/17 11:25:20;;;;;;;14.33;8.60;;;;;;;-143.84;41.14;45108.09;5133791;27;20497;-71
2022/01/17 11:27:48;;;;;;;13.77;9.03;;;;;;;-143.84;41.05;45123.34;5133955;27;20429;-71
2022/01/17 11:30:16;;;;;;;16.13;9.00;;;;;;;-143.84;41.48;45108.09;5134065;27;20513;-71
2022/01/17 11:32:45;;;;;;;18.93;8.20;;;;;;;-143.84;42.31;45113.81;5133816;27;20453;-71
2022/01/17 11:35:16;;;;;;;18.70;8.43;;;;;;;-143.84;43.09;45119.53;5133763;27;20436;-71